Terminal Aerodrome Forecast
Issued by NWS

Home | Current Version | Previous Version | Text Only | Print | Product List | Glossary On
Versions: 1 2 3 4 5 6 7 8 9 10 11 12 13 14 15 16 17 18 19 20 21 22 23 24 25 26 27 28 29 30 31 32 33 34 35 36 37 38 39 40
550
FTAK31 PANC 072222 AAA
TAFADQ
TAF AMD
PADQ 072222Z 0722/0818 05028G40KT 4SM -RA BKN014 OVC022
      TEMPO 0722/0723 2SM -RA OVC014
     FM072300 05028G38KT 3SM -RA BKN014 OVC022
     FM080100 06015G25KT 4SM -RA BR BKN008 OVC015
     FM080800 10020G32KT 4SM -RA BR SCT008 OVC015
     FM081500 14025G32KT 5SM -RA OVC015=

USA.gov is the U.S. government's official web portal to all federal, state and local government web resources and services.